Terminal Aerodrome Forecast
Issued by NWS Blacksburg, VA

Home | Current Version | Previous Version | Text Only | Print | Product List | Glossary On
Versions: 1 2 3 4 5 6 7 8 9 10 11 12 13 14 15 16 17 18 19 20 21 22 23 24 25 26 27 28 29 30 31 32 33 34 35
000
FTUS41 KRNK 212338
TAFROA
TAF
KROA 212338Z 2200/2224 29006KT P6SM VCSH SCT050 BKN110
     FM220300 27003KT P6SM BKN100
     FM221100 28004KT 5SM BR SCT100
     FM221300 27007KT P6SM SCT035 BKN100
     FM221900 31008KT P6SM VCTS SCT050CB OVC120=

USA.gov is the U.S. government's official web portal to all federal, state and local government web resources and services.